Time;durP1;ratioP1;P1;durP2;ratioP2;P2;SDS_P1;SDS_P2;PMS_P1;PMS_P2;Temp;Humidity;BMP_temperature;BMP_pressure;BME280_temperature;BME280_humidity;BME280_pressure;Samples;Min_cycle;Max_cycle;Signal;HPM_P1;HPM_P2
2020/10/01 00:00:57;;;;;;;20.75;14.15;;;;;;;7.64;100;94688.73;;;;
2020/10/01 00:01:57;;;;;;;19.3;13.4;;;;;;;7.49;100;94678.96;;;;
2020/10/01 00:02:58;;;;;;;19.3;13.4;;;;;;;7.49;100;94678.96;;;;
2020/10/01 00:03:58;;;;;;;19.3;13.4;;;;;;;7.49;100;94678.96;;;;
2020/10/01 00:04:59;;;;;;;19.3;13.4;;;;;;;7.49;100;94678.96;;;;
2020/10/01 00:06:00;;;;;;;19.3;13.4;;;;;;;7.49;100;94678.96;;;;
2020/10/01 00:07:00;;;;;;;19.3;13.4;;;;;;;7.49;100;94678.96;;;;
2020/10/01 00:08:01;;;;;;;19.3;13.4;;;;;;;7.49;100;94678.96;;;;
2020/10/01 00:09:02;;;;;;;19.3;13.4;;;;;;;7.49;100;94678.96;;;;
2020/10/01 00:10:03;;;;;;;19.3;13.4;;;;;;;7.49;100;94678.96;;;;
2020/10/01 00:11:04;;;;;;;19.3;13.4;;;;;;;7.49;100;94678.96;;;;
2020/10/01 00:12:05;;;;;;;19.3;13.4;;;;;;;7.49;100;94678.96;;;;
2020/10/01 00:13:05;;;;;;;20.4;13.75;;;;;;;7.38;100;94673.86;;;;
2020/10/01 00:14:06;;;;;;;20.4;13.75;;;;;;;7.38;100;94673.86;;;;
2020/10/01 00:15:06;;;;;;;20.4;13.75;;;;;;;7.38;100;94673.86;;;;
2020/10/01 00:16:07;;;;;;;20.4;13.75;;;;;;;7.38;100;94673.86;;;;
2020/10/01 00:17:07;;;;;;;20.4;13.75;;;;;;;7.38;100;94673.86;;;;
2020/10/01 00:18:08;;;;;;;20.4;13.75;;;;;;;7.38;100;94673.86;;;;
2020/10/01 00:19:08;;;;;;;20.4;13.75;;;;;;;7.38;100;94673.86;;;;
2020/10/01 00:20:09;;;;;;;20.4;13.75;;;;;;;7.38;100;94673.86;;;;
2020/10/01 00:21:09;;;;;;;20.4;13.75;;;;;;;7.38;100;94673.86;;;;
2020/10/01 00:22:10;;;;;;;20.4;13.75;;;;;;;7.38;100;94673.86;;;;
2020/10/01 00:23:11;;;;;;;18.15;11.9;;;;;;;7.19;100;94670.04;;;;
2020/10/01 00:24:11;;;;;;;18.15;11.9;;;;;;;7.19;100;94670.04;;;;
2020/10/01 00:25:12;;;;;;;18.15;11.9;;;;;;;7.19;100;94670.04;;;;
2020/10/01 00:26:12;;;;;;;18.15;11.9;;;;;;;7.19;100;94670.04;;;;
2020/10/01 00:27:13;;;;;;;18.15;11.9;;;;;;;7.19;100;94670.04;;;;
2020/10/01 00:28:13;;;;;;;18.15;11.9;;;;;;;7.19;100;94670.04;;;;
2020/10/01 00:29:14;;;;;;;18.15;11.9;;;;;;;7.19;100;94670.04;;;;
2020/10/01 00:30:14;;;;;;;18.15;11.9;;;;;;;7.19;100;94670.04;;;;
2020/10/01 00:31:15;;;;;;;18.15;11.9;;;;;;;7.19;100;94670.04;;;;
2020/10/01 00:32:16;;;;;;;18.15;11.9;;;;;;;7.19;100;94670.04;;;;
2020/10/01 00:33:16;;;;;;;18.15;11.9;;;;;;;7.19;100;94670.04;;;;
2020/10/01 00:34:17;;;;;;;17.8;12.25;;;;;;;7.07;100;94662.08;;;;
2020/10/01 00:35:17;;;;;;;17.8;12.25;;;;;;;7.07;100;94662.08;;;;
2020/10/01 00:36:18;;;;;;;17.8;12.25;;;;;;;7.07;100;94662.08;;;;
2020/10/01 00:37:18;;;;;;;17.8;12.25;;;;;;;7.07;100;94662.08;;;;
2020/10/01 00:38:19;;;;;;;17.8;12.25;;;;;;;7.07;100;94662.08;;;;
2020/10/01 00:39:19;;;;;;;17.8;12.25;;;;;;;7.07;100;94662.08;;;;
2020/10/01 00:40:20;;;;;;;17.8;12.25;;;;;;;7.07;100;94662.08;;;;
2020/10/01 00:41:20;;;;;;;17.8;12.25;;;;;;;7.07;100;94662.08;;;;
2020/10/01 00:42:21;;;;;;;17.8;12.25;;;;;;;7.07;100;94662.08;;;;
2020/10/01 00:43:21;;;;;;;17.8;12.25;;;;;;;7.07;100;94662.08;;;;
2020/10/01 00:44:22;;;;;;;17.85;12;;;;;;;6.88;100;94636.24;;;;
2020/10/01 00:45:22;;;;;;;17.85;12;;;;;;;6.88;100;94636.24;;;;
2020/10/01 00:46:23;;;;;;;17.85;12;;;;;;;6.88;100;94636.24;;;;
2020/10/01 00:47:24;;;;;;;17.85;12;;;;;;;6.88;100;94636.24;;;;
2020/10/01 00:48:24;;;;;;;17.85;12;;;;;;;6.88;100;94636.24;;;;
2020/10/01 00:49:25;;;;;;;17.85;12;;;;;;;6.88;100;94636.24;;;;
2020/10/01 00:50:26;;;;;;;17.85;12;;;;;;;6.88;100;94636.24;;;;
2020/10/01 00:51:26;;;;;;;17.85;12;;;;;;;6.88;100;94636.24;;;;
2020/10/01 00:52:27;;;;;;;17.85;12;;;;;;;6.88;100;94636.24;;;;
2020/10/01 00:53:27;;;;;;;17.85;12;;;;;;;6.88;100;94636.24;;;;
2020/10/01 00:54:28;;;;;;;17.85;12;;;;;;;6.88;100;94636.24;;;;
2020/10/01 00:55:28;;;;;;;17.2;12.15;;;;;;;6.79;100;94630.9;;;;
2020/10/01 00:56:29;;;;;;;17.2;12.15;;;;;;;6.79;100;94630.9;;;;
2020/10/01 00:57:29;;;;;;;17.2;12.15;;;;;;;6.79;100;94630.9;;;;
2020/10/01 00:58:31;;;;;;;17.2;12.15;;;;;;;6.79;100;94630.9;;;;
2020/10/01 00:59:32;;;;;;;17.2;12.15;;;;;;;6.79;100;94630.9;;;;
2020/10/01 01:00:32;;;;;;;17.2;12.15;;;;;;;6.79;100;94630.9;;;;
2020/10/01 01:01:33;;;;;;;17.2;12.15;;;;;;;6.79;100;94630.9;;;;
2020/10/01 01:02:33;;;;;;;17.2;12.15;;;;;;;6.79;100;94630.9;;;;
2020/10/01 01:03:34;;;;;;;17.2;12.15;;;;;;;6.79;100;94630.9;;;;
2020/10/01 01:04:36;;;;;;;17.2;12.15;;;;;;;6.79;100;94630.9;;;;
2020/10/01 01:05:36;;;;;;;17.2;12.15;;;;;;;6.79;100;94630.9;;;;
2020/10/01 01:06:37;;;;;;;19.75;12.4;;;;;;;6.67;100;94622.1;;;;
2020/10/01 01:07:37;;;;;;;19.75;12.4;;;;;;;6.67;100;94622.1;;;;
2020/10/01 01:08:38;;;;;;;19.75;12.4;;;;;;;6.67;100;94622.1;;;;
2020/10/01 01:09:38;;;;;;;19.75;12.4;;;;;;;6.67;100;94622.1;;;;
2020/10/01 01:10:39;;;;;;;19.75;12.4;;;;;;;6.67;100;94622.1;;;;
2020/10/01 01:11:39;;;;;;;19.75;12.4;;;;;;;6.67;100;94622.1;;;;
2020/10/01 01:12:40;;;;;;;19.75;12.4;;;;;;;6.67;100;94622.1;;;;
2020/10/01 01:13:41;;;;;;;19.75;12.4;;;;;;;6.67;100;94622.1;;;;
2020/10/01 01:14:41;;;;;;;19.75;12.4;;;;;;;6.67;100;94622.1;;;;
2020/10/01 01:15:42;;;;;;;19.75;12.4;;;;;;;6.67;100;94622.1;;;;
2020/10/01 01:16:43;;;;;;;18.75;13.15;;;;;;;6.62;100;94601.31;;;;
2020/10/01 01:17:44;;;;;;;18.75;13.15;;;;;;;6.62;100;94601.31;;;;
2020/10/01 01:18:44;;;;;;;18.75;13.15;;;;;;;6.62;100;94601.31;;;;
2020/10/01 01:19:45;;;;;;;18.75;13.15;;;;;;;6.62;100;94601.31;;;;
2020/10/01 01:20:45;;;;;;;18.75;13.15;;;;;;;6.62;100;94601.31;;;;
2020/10/01 01:21:46;;;;;;;18.75;13.15;;;;;;;6.62;100;94601.31;;;;
2020/10/01 01:22:46;;;;;;;18.75;13.15;;;;;;;6.62;100;94601.31;;;;
2020/10/01 01:23:47;;;;;;;18.75;13.15;;;;;;;6.62;100;94601.31;;;;
2020/10/01 01:24:47;;;;;;;18.75;13.15;;;;;;;6.62;100;94601.31;;;;
2020/10/01 01:25:48;;;;;;;18.75;13.15;;;;;;;6.62;100;94601.31;;;;
2020/10/01 01:26:48;;;;;;;18.75;13.15;;;;;;;6.62;100;94601.31;;;;
2020/10/01 01:27:49;;;;;;;20.05;13.25;;;;;;;6.5;100;94587.47;;;;
2020/10/01 01:28:49;;;;;;;20.05;13.25;;;;;;;6.5;100;94587.47;;;;
2020/10/01 01:29:50;;;;;;;20.05;13.25;;;;;;;6.5;100;94587.47;;;;
2020/10/01 01:30:50;;;;;;;20.05;13.25;;;;;;;6.5;100;94587.47;;;;
2020/10/01 01:31:51;;;;;;;20.05;13.25;;;;;;;6.5;100;94587.47;;;;
2020/10/01 01:32:51;;;;;;;20.05;13.25;;;;;;;6.5;100;94587.47;;;;
2020/10/01 01:33:52;;;;;;;20.05;13.25;;;;;;;6.5;100;94587.47;;;;
2020/10/01 01:34:52;;;;;;;20.05;13.25;;;;;;;6.5;100;94587.47;;;;
2020/10/01 01:35:53;;;;;;;20.05;13.25;;;;;;;6.5;100;94587.47;;;;
2020/10/01 01:36:53;;;;;;;20.05;13.25;;;;;;;6.5;100;94587.47;;;;
2020/10/01 01:37:54;;;;;;;20.55;13.25;;;;;;;6.46;100;94576.89;;;;
2020/10/01 01:38:54;;;;;;;20.55;13.25;;;;;;;6.46;100;94576.89;;;;
2020/10/01 01:39:55;;;;;;;20.55;13.25;;;;;;;6.46;100;94576.89;;;;
2020/10/01 01:40:55;;;;;;;20.55;13.25;;;;;;;6.46;100;94576.89;;;;
2020/10/01 01:41:56;;;;;;;20.55;13.25;;;;;;;6.46;100;94576.89;;;;
2020/10/01 01:42:56;;;;;;;20.55;13.25;;;;;;;6.46;100;94576.89;;;;
2020/10/01 01:43:57;;;;;;;20.55;13.25;;;;;;;6.46;100;94576.89;;;;
2020/10/01 01:44:57;;;;;;;20.55;13.25;;;;;;;6.46;100;94576.89;;;;
2020/10/01 01:45:58;;;;;;;20.55;13.25;;;;;;;6.46;100;94576.89;;;;
2020/10/01 01:46:58;;;;;;;20.55;13.25;;;;;;;6.46;100;94576.89;;;;
2020/10/01 01:47:59;;;;;;;20.55;13.25;;;;;;;6.46;100;94576.89;;;;
2020/10/01 01:48:59;;;;;;;21.1;14.55;;;;;;;6.36;100;94565.09;;;;
2020/10/01 01:50:00;;;;;;;21.1;14.55;;;;;;;6.36;100;94565.09;;;;
2020/10/01 01:51:00;;;;;;;21.1;14.55;;;;;;;6.36;100;94565.09;;;;
2020/10/01 01:52:01;;;;;;;21.1;14.55;;;;;;;6.36;100;94565.09;;;;
2020/10/01 01:53:02;;;;;;;21.1;14.55;;;;;;;6.36;100;94565.09;;;;
2020/10/01 01:54:02;;;;;;;21.1;14.55;;;;;;;6.36;100;94565.09;;;;
2020/10/01 01:55:03;;;;;;;21.1;14.55;;;;;;;6.36;100;94565.09;;;;
2020/10/01 01:56:04;;;;;;;21.1;14.55;;;;;;;6.36;100;94565.09;;;;
2020/10/01 01:57:04;;;;;;;21.1;14.55;;;;;;;6.36;100;94565.09;;;;
2020/10/01 01:58:05;;;;;;;21.1;14.55;;;;;;;6.36;100;94565.09;;;;
2020/10/01 01:59:05;;;;;;;20.7;13;;;;;;;6.32;100;94560.71;;;;
2020/10/01 02:00:06;;;;;;;20.7;13;;;;;;;6.32;100;94560.71;;;;
2020/10/01 02:01:06;;;;;;;20.7;13;;;;;;;6.32;100;94560.71;;;;
2020/10/01 02:02:07;;;;;;;20.7;13;;;;;;;6.32;100;94560.71;;;;
2020/10/01 02:03:08;;;;;;;20.7;13;;;;;;;6.32;100;94560.71;;;;
2020/10/01 02:04:08;;;;;;;20.7;13;;;;;;;6.32;100;94560.71;;;;
2020/10/01 02:05:09;;;;;;;20.7;13;;;;;;;6.32;100;94560.71;;;;
2020/10/01 02:06:09;;;;;;;20.7;13;;;;;;;6.32;100;94560.71;;;;
2020/10/01 02:07:10;;;;;;;20.7;13;;;;;;;6.32;100;94560.71;;;;
2020/10/01 02:08:10;;;;;;;20.7;13;;;;;;;6.32;100;94560.71;;;;
2020/10/01 02:09:11;;;;;;;20.7;13;;;;;;;6.32;100;94560.71;;;;
2020/10/01 02:10:12;;;;;;;20.05;13.1;;;;;;;6.2;100;94556.24;;;;
2020/10/01 02:11:12;;;;;;;20.05;13.1;;;;;;;6.2;100;94556.24;;;;
2020/10/01 02:12:13;;;;;;;20.05;13.1;;;;;;;6.2;100;94556.24;;;;
2020/10/01 02:13:13;;;;;;;20.05;13.1;;;;;;;6.2;100;94556.24;;;;
2020/10/01 02:14:14;;;;;;;20.05;13.1;;;;;;;6.2;100;94556.24;;;;
2020/10/01 02:15:15;;;;;;;20.05;13.1;;;;;;;6.2;100;94556.24;;;;
2020/10/01 02:16:15;;;;;;;20.05;13.1;;;;;;;6.2;100;94556.24;;;;
2020/10/01 02:17:16;;;;;;;20.05;13.1;;;;;;;6.2;100;94556.24;;;;
2020/10/01 02:18:16;;;;;;;20.05;13.1;;;;;;;6.2;100;94556.24;;;;
2020/10/01 02:19:17;;;;;;;20.05;13.1;;;;;;;6.2;100;94556.24;;;;
2020/10/01 02:20:17;;;;;;;20.05;13.1;;;;;;;6.2;100;94556.24;;;;
2020/10/01 02:21:18;;;;;;;18.05;11.9;;;;;;;6.19;100;94557.4;;;;
2020/10/01 02:22:18;;;;;;;18.05;11.9;;;;;;;6.19;100;94557.4;;;;
2020/10/01 02:23:19;;;;;;;18.05;11.9;;;;;;;6.19;100;94557.4;;;;
2020/10/01 02:24:19;;;;;;;18.05;11.9;;;;;;;6.19;100;94557.4;;;;
2020/10/01 02:25:20;;;;;;;18.05;11.9;;;;;;;6.19;100;94557.4;;;;
2020/10/01 02:26:20;;;;;;;18.05;11.9;;;;;;;6.19;100;94557.4;;;;
2020/10/01 02:27:21;;;;;;;18.05;11.9;;;;;;;6.19;100;94557.4;;;;
2020/10/01 02:28:21;;;;;;;18.05;11.9;;;;;;;6.19;100;94557.4;;;;
2020/10/01 02:29:22;;;;;;;18.05;11.9;;;;;;;6.19;100;94557.4;;;;
2020/10/01 02:30:22;;;;;;;18.05;11.9;;;;;;;6.19;100;94557.4;;;;
2020/10/01 02:31:23;;;;;;;20.4;12.3;;;;;;;6.12;100;94543.24;;;;
2020/10/01 02:32:23;;;;;;;20.4;12.3;;;;;;;6.12;100;94543.24;;;;
2020/10/01 02:33:24;;;;;;;20.4;12.3;;;;;;;6.12;100;94543.24;;;;
2020/10/01 02:34:24;;;;;;;20.4;12.3;;;;;;;6.12;100;94543.24;;;;
2020/10/01 02:35:25;;;;;;;20.4;12.3;;;;;;;6.12;100;94543.24;;;;
2020/10/01 02:36:25;;;;;;;20.4;12.3;;;;;;;6.12;100;94543.24;;;;
2020/10/01 02:37:26;;;;;;;20.4;12.3;;;;;;;6.12;100;94543.24;;;;
2020/10/01 02:38:26;;;;;;;20.4;12.3;;;;;;;6.12;100;94543.24;;;;
2020/10/01 02:39:27;;;;;;;20.4;12.3;;;;;;;6.12;100;94543.24;;;;
2020/10/01 02:40:27;;;;;;;20.4;12.3;;;;;;;6.12;100;94543.24;;;;
2020/10/01 02:41:28;;;;;;;20.4;12.3;;;;;;;6.12;100;94543.24;;;;
2020/10/01 02:42:28;;;;;;;19.85;11.4;;;;;;;6.09;100;94531.55;;;;
2020/10/01 02:43:29;;;;;;;19.85;11.4;;;;;;;6.09;100;94531.55;;;;
2020/10/01 02:44:30;;;;;;;19.85;11.4;;;;;;;6.09;100;94531.55;;;;
2020/10/01 02:45:30;;;;;;;19.85;11.4;;;;;;;6.09;100;94531.55;;;;
2020/10/01 02:46:30;;;;;;;19.85;11.4;;;;;;;6.09;100;94531.55;;;;
2020/10/01 02:47:31;;;;;;;19.85;11.4;;;;;;;6.09;100;94531.55;;;;
2020/10/01 02:48:31;;;;;;;19.85;11.4;;;;;;;6.09;100;94531.55;;;;
2020/10/01 02:49:32;;;;;;;19.85;11.4;;;;;;;6.09;100;94531.55;;;;
2020/10/01 02:50:33;;;;;;;19.85;11.4;;;;;;;6.09;100;94531.55;;;;
2020/10/01 02:51:33;;;;;;;19.85;11.4;;;;;;;6.09;100;94531.55;;;;
2020/10/01 02:52:34;;;;;;;19.4;11.45;;;;;;;5.97;100;94529.86;;;;
2020/10/01 02:53:34;;;;;;;19.4;11.45;;;;;;;5.97;100;94529.86;;;;
2020/10/01 02:54:35;;;;;;;19.4;11.45;;;;;;;5.97;100;94529.86;;;;
2020/10/01 02:55:35;;;;;;;19.4;11.45;;;;;;;5.97;100;94529.86;;;;
2020/10/01 02:56:36;;;;;;;19.4;11.45;;;;;;;5.97;100;94529.86;;;;
2020/10/01 02:57:36;;;;;;;19.4;11.45;;;;;;;5.97;100;94529.86;;;;
2020/10/01 02:58:37;;;;;;;19.4;11.45;;;;;;;5.97;100;94529.86;;;;
2020/10/01 02:59:37;;;;;;;19.4;11.45;;;;;;;5.97;100;94529.86;;;;
2020/10/01 03:00:38;;;;;;;19.4;11.45;;;;;;;5.97;100;94529.86;;;;
2020/10/01 03:01:38;;;;;;;19.4;11.45;;;;;;;5.97;100;94529.86;;;;
2020/10/01 03:02:39;;;;;;;19.4;11.45;;;;;;;5.97;100;94529.86;;;;
2020/10/01 03:03:40;;;;;;;15.3;10.5;;;;;;;5.93;100;94518.78;;;;
2020/10/01 03:04:40;;;;;;;15.3;10.5;;;;;;;5.93;100;94518.78;;;;
2020/10/01 03:05:41;;;;;;;15.3;10.5;;;;;;;5.93;100;94518.78;;;;
2020/10/01 03:06:41;;;;;;;15.3;10.5;;;;;;;5.93;100;94518.78;;;;
2020/10/01 03:07:42;;;;;;;15.3;10.5;;;;;;;5.93;100;94518.78;;;;
2020/10/01 03:08:42;;;;;;;15.3;10.5;;;;;;;5.93;100;94518.78;;;;
2020/10/01 03:09:43;;;;;;;15.3;10.5;;;;;;;5.93;100;94518.78;;;;
2020/10/01 03:10:44;;;;;;;15.3;10.5;;;;;;;5.93;100;94518.78;;;;
2020/10/01 03:11:44;;;;;;;15.3;10.5;;;;;;;5.93;100;94518.78;;;;
2020/10/01 03:12:45;;;;;;;15.3;10.5;;;;;;;5.93;100;94518.78;;;;
2020/10/01 03:13:45;;;;;;;16.35;10.35;;;;;;;5.81;100;94517.85;;;;
2020/10/01 03:14:46;;;;;;;16.35;10.35;;;;;;;5.81;100;94517.85;;;;
2020/10/01 03:15:46;;;;;;;16.35;10.35;;;;;;;5.81;100;94517.85;;;;
2020/10/01 03:16:56;;;;;;;16.35;10.35;;;;;;;5.81;100;94517.85;;;;
2020/10/01 03:17:56;;;;;;;16.35;10.35;;;;;;;5.81;100;94517.85;;;;
2020/10/01 03:18:57;;;;;;;16.35;10.35;;;;;;;5.81;100;94517.85;;;;
2020/10/01 03:19:57;;;;;;;16.35;10.35;;;;;;;5.81;100;94517.85;;;;
2020/10/01 03:20:58;;;;;;;16.35;10.35;;;;;;;5.81;100;94517.85;;;;
2020/10/01 03:21:58;;;;;;;16.35;10.35;;;;;;;5.81;100;94517.85;;;;
2020/10/01 03:22:59;;;;;;;16.35;10.35;;;;;;;5.81;100;94517.85;;;;
2020/10/01 03:23:59;;;;;;;16.35;10.35;;;;;;;5.81;100;94517.85;;;;
2020/10/01 03:25:00;;;;;;;18.95;10.5;;;;;;;5.79;100;94514.2;;;;
2020/10/01 03:26:00;;;;;;;18.95;10.5;;;;;;;5.79;100;94514.2;;;;
2020/10/01 03:27:01;;;;;;;18.95;10.5;;;;;;;5.79;100;94514.2;;;;
2020/10/01 03:28:01;;;;;;;18.95;10.5;;;;;;;5.79;100;94514.2;;;;
2020/10/01 03:29:02;;;;;;;18.95;10.5;;;;;;;5.79;100;94514.2;;;;
2020/10/01 03:30:03;;;;;;;18.95;10.5;;;;;;;5.79;100;94514.2;;;;
2020/10/01 03:31:03;;;;;;;18.95;10.5;;;;;;;5.79;100;94514.2;;;;
2020/10/01 03:32:04;;;;;;;18.95;10.5;;;;;;;5.79;100;94514.2;;;;
2020/10/01 03:33:05;;;;;;;18.95;10.5;;;;;;;5.79;100;94514.2;;;;
2020/10/01 03:34:05;;;;;;;18.95;10.5;;;;;;;5.79;100;94514.2;;;;
2020/10/01 03:35:06;;;;;;;12.8;8.75;;;;;;;5.69;100;94506.78;;;;
2020/10/01 03:36:06;;;;;;;12.8;8.75;;;;;;;5.69;100;94506.78;;;;
2020/10/01 03:37:07;;;;;;;12.8;8.75;;;;;;;5.69;100;94506.78;;;;
2020/10/01 03:38:07;;;;;;;12.8;8.75;;;;;;;5.69;100;94506.78;;;;
2020/10/01 03:39:08;;;;;;;12.8;8.75;;;;;;;5.69;100;94506.78;;;;
2020/10/01 03:40:08;;;;;;;12.8;8.75;;;;;;;5.69;100;94506.78;;;;
2020/10/01 03:41:09;;;;;;;12.8;8.75;;;;;;;5.69;100;94506.78;;;;
2020/10/01 03:42:09;;;;;;;12.8;8.75;;;;;;;5.69;100;94506.78;;;;
2020/10/01 03:43:10;;;;;;;12.8;8.75;;;;;;;5.69;100;94506.78;;;;
2020/10/01 03:44:11;;;;;;;12.8;8.75;;;;;;;5.69;100;94506.78;;;;
2020/10/01 03:45:12;;;;;;;12.8;8.75;;;;;;;5.69;100;94506.78;;;;
2020/10/01 03:46:12;;;;;;;15.8;9.100001;;;;;;;5.64;100;94494.59;;;;
2020/10/01 03:47:15;;;;;;;15.8;9.100001;;;;;;;5.64;100;94494.59;;;;
2020/10/01 03:48:24;;;;;;;15.8;9.100001;;;;;;;5.64;100;94494.59;;;;
2020/10/01 03:49:25;;;;;;;15.8;9.100001;;;;;;;5.64;100;94494.59;;;;
2020/10/01 03:50:26;;;;;;;15.8;9.100001;;;;;;;5.64;100;94494.59;;;;
2020/10/01 03:51:26;;;;;;;15.8;9.100001;;;;;;;5.64;100;94494.59;;;;
2020/10/01 03:52:27;;;;;;;15.8;9.100001;;;;;;;5.64;100;94494.59;;;;
2020/10/01 03:53:28;;;;;;;15.8;9.100001;;;;;;;5.64;100;94494.59;;;;
2020/10/01 03:54:28;;;;;;;15.8;9.100001;;;;;;;5.64;100;94494.59;;;;
2020/10/01 03:55:29;;;;;;;15.8;9.100001;;;;;;;5.64;100;94494.59;;;;
2020/10/01 03:56:29;;;;;;;22.3;12.25;;;;;;;5.76;100;94473.52;;;;
2020/10/01 03:57:30;;;;;;;22.3;12.25;;;;;;;5.76;100;94473.52;;;;
2020/10/01 03:58:41;;;;;;;22.3;12.25;;;;;;;5.76;100;94473.52;;;;
2020/10/01 03:59:42;;;;;;;22.3;12.25;;;;;;;5.76;100;94473.52;;;;
2020/10/01 04:00:43;;;;;;;22.3;12.25;;;;;;;5.76;100;94473.52;;;;
2020/10/01 04:01:48;;;;;;;22.3;12.25;;;;;;;5.76;100;94473.52;;;;
2020/10/01 04:02:49;;;;;;;22.3;12.25;;;;;;;5.76;100;94473.52;;;;
2020/10/01 04:03:49;;;;;;;22.3;12.25;;;;;;;5.76;100;94473.52;;;;
2020/10/01 04:04:57;;;;;;;22.3;12.25;;;;;;;5.76;100;94473.52;;;;
2020/10/01 04:05:58;;;;;;;22.3;12.25;;;;;;;5.76;100;94473.52;;;;
2020/10/01 04:06:59;;;;;;;22.3;12.25;;;;;;;5.76;100;94473.52;;;;
2020/10/01 04:08:00;;;;;;;17.6;10.95;;;;;;;6.14;100;94472.82;;;;
2020/10/01 04:09:10;;;;;;;17.6;10.95;;;;;;;6.14;100;94472.82;;;;
2020/10/01 04:10:14;;;;;;;17.6;10.95;;;;;;;6.14;100;94472.82;;;;
2020/10/01 04:11:15;;;;;;;17.6;10.95;;;;;;;6.14;100;94472.82;;;;
2020/10/01 04:12:16;;;;;;;17.6;10.95;;;;;;;6.14;100;94472.82;;;;
2020/10/01 04:13:16;;;;;;;17.6;10.95;;;;;;;6.14;100;94472.82;;;;
2020/10/01 04:14:32;;;;;;;17.6;10.95;;;;;;;6.14;100;94472.82;;;;
2020/10/01 04:15:41;;;;;;;17.6;10.95;;;;;;;6.14;100;94472.82;;;;
2020/10/01 04:16:42;;;;;;;17.6;10.95;;;;;;;6.14;100;94472.82;;;;
2020/10/01 04:17:53;;;;;;;18.65;10.3;;;;;;;6.32;100;94462.45;;;;
2020/10/01 04:18:54;;;;;;;18.65;10.3;;;;;;;6.32;100;94462.45;;;;
2020/10/01 04:19:59;;;;;;;18.65;10.3;;;;;;;6.32;100;94462.45;;;;
2020/10/01 04:21:00;;;;;;;18.65;10.3;;;;;;;6.32;100;94462.45;;;;
2020/10/01 04:22:07;;;;;;;18.65;10.3;;;;;;;6.32;100;94462.45;;;;
2020/10/01 04:23:07;;;;;;;18.65;10.3;;;;;;;6.32;100;94462.45;;;;
2020/10/01 04:24:23;;;;;;;18.65;10.3;;;;;;;6.32;100;94462.45;;;;
2020/10/01 04:25:27;;;;;;;18.65;10.3;;;;;;;6.32;100;94462.45;;;;
2020/10/01 04:26:27;;;;;;;18.65;10.3;;;;;;;6.32;100;94462.45;;;;
2020/10/01 04:27:31;;;;;;;18.65;10.3;;;;;;;6.32;100;94462.45;;;;
2020/10/01 04:28:33;;;;;;;25.05;11.7;;;;;;;6.6;100;94455.1;;;;
2020/10/01 04:29:34;;;;;;;25.05;11.7;;;;;;;6.6;100;94455.1;;;;
2020/10/01 04:30:35;;;;;;;25.05;11.7;;;;;;;6.6;100;94455.1;;;;
2020/10/01 04:31:35;;;;;;;25.05;11.7;;;;;;;6.6;100;94455.1;;;;
2020/10/01 04:32:36;;;;;;;25.05;11.7;;;;;;;6.6;100;94455.1;;;;
2020/10/01 04:33:38;;;;;;;25.05;11.7;;;;;;;6.6;100;94455.1;;;;
2020/10/01 04:34:39;;;;;;;25.05;11.7;;;;;;;6.6;100;94455.1;;;;
2020/10/01 04:35:40;;;;;;;25.05;11.7;;;;;;;6.6;100;94455.1;;;;
2020/10/01 04:36:41;;;;;;;25.05;11.7;;;;;;;6.6;100;94455.1;;;;
2020/10/01 04:37:43;;;;;;;25.05;11.7;;;;;;;6.6;100;94455.1;;;;
2020/10/01 04:38:45;;;;;;;25.05;11.7;;;;;;;6.6;100;94455.1;;;;
2020/10/01 04:39:51;;;;;;;38.75;12.6;;;;;;;6.9;100;94446.83;;;;
2020/10/01 04:40:56;;;;;;;38.75;12.6;;;;;;;6.9;100;94446.83;;;;
2020/10/01 04:41:57;;;;;;;38.75;12.6;;;;;;;6.9;100;94446.83;;;;
2020/10/01 04:43:00;;;;;;;38.75;12.6;;;;;;;6.9;100;94446.83;;;;
2020/10/01 04:44:02;;;;;;;38.75;12.6;;;;;;;6.9;100;94446.83;;;;
2020/10/01 04:45:03;;;;;;;38.75;12.6;;;;;;;6.9;100;94446.83;;;;
2020/10/01 04:46:05;;;;;;;38.75;12.6;;;;;;;6.9;100;94446.83;;;;
2020/10/01 04:47:06;;;;;;;38.75;12.6;;;;;;;6.9;100;94446.83;;;;
2020/10/01 04:48:07;;;;;;;38.75;12.6;;;;;;;6.9;100;94446.83;;;;
2020/10/01 04:49:25;;;;;;;38.75;12.6;;;;;;;6.9;100;94446.83;;;;
2020/10/01 04:50:29;;;;;;;17.7;10;;;;;;;7.27;100;94444.68;;;;
2020/10/01 04:51:29;;;;;;;17.7;10;;;;;;;7.27;100;94444.68;;;;
2020/10/01 04:52:31;;;;;;;17.7;10;;;;;;;7.27;100;94444.68;;;;
2020/10/01 04:53:47;;;;;;;17.7;10;;;;;;;7.27;100;94444.68;;;;
2020/10/01 04:55:07;;;;;;;17.7;10;;;;;;;7.27;100;94444.68;;;;
2020/10/01 04:56:18;;;;;;;17.7;10;;;;;;;7.27;100;94444.68;;;;
2020/10/01 04:57:20;;;;;;;17.7;10;;;;;;;7.27;100;94444.68;;;;
2020/10/01 04:58:22;;;;;;;17.7;10;;;;;;;7.27;100;94444.68;;;;
2020/10/01 04:59:30;;;;;;;17.7;10;;;;;;;7.27;100;94444.68;;;;
2020/10/01 05:00:33;;;;;;;20;10.15;;;;;;;7.48;100;94438.16;;;;
2020/10/01 05:01:34;;;;;;;20;10.15;;;;;;;7.48;100;94438.16;;;;
2020/10/01 05:02:34;;;;;;;20;10.15;;;;;;;7.48;100;94438.16;;;;
2020/10/01 05:03:35;;;;;;;20;10.15;;;;;;;7.48;100;94438.16;;;;
2020/10/01 05:04:36;;;;;;;20;10.15;;;;;;;7.48;100;94438.16;;;;
2020/10/01 05:05:36;;;;;;;20;10.15;;;;;;;7.48;100;94438.16;;;;
2020/10/01 05:06:37;;;;;;;20;10.15;;;;;;;7.48;100;94438.16;;;;
2020/10/01 05:07:37;;;;;;;20;10.15;;;;;;;7.48;100;94438.16;;;;
2020/10/01 05:09:00;;;;;;;20;10.15;;;;;;;7.48;100;94438.16;;;;
2020/10/01 05:10:19;;;;;;;20;10.15;;;;;;;7.48;100;94438.16;;;;
2020/10/01 05:11:19;;;;;;;15.85;9.45;;;;;;;7.77;100;94433.11;;;;
2020/10/01 05:12:21;;;;;;;15.85;9.45;;;;;;;7.77;100;94433.11;;;;
2020/10/01 05:13:23;;;;;;;15.85;9.45;;;;;;;7.77;100;94433.11;;;;
2020/10/01 05:14:26;;;;;;;15.85;9.45;;;;;;;7.77;100;94433.11;;;;
2020/10/01 05:15:29;;;;;;;15.85;9.45;;;;;;;7.77;100;94433.11;;;;
2020/10/01 05:16:55;;;;;;;15.85;9.45;;;;;;;7.77;100;94433.11;;;;
2020/10/01 05:17:55;;;;;;;15.85;9.45;;;;;;;7.77;100;94433.11;;;;
2020/10/01 05:18:56;;;;;;;15.85;9.45;;;;;;;7.77;100;94433.11;;;;
2020/10/01 05:19:56;;;;;;;15.85;9.45;;;;;;;7.77;100;94433.11;;;;
2020/10/01 05:21:18;;;;;;;15.85;9.45;;;;;;;7.77;100;94433.11;;;;
2020/10/01 05:22:34;;;;;;;14.2;9.100001;;;;;;;7.9;100;94435.11;;;;
2020/10/01 05:23:35;;;;;;;14.2;9.100001;;;;;;;7.9;100;94435.11;;;;
2020/10/01 05:24:35;;;;;;;14.2;9.100001;;;;;;;7.9;100;94435.11;;;;
2020/10/01 05:25:39;;;;;;;14.2;9.100001;;;;;;;7.9;100;94435.11;;;;
2020/10/01 05:26:40;;;;;;;14.2;9.100001;;;;;;;7.9;100;94435.11;;;;
2020/10/01 05:27:42;;;;;;;14.2;9.100001;;;;;;;7.9;100;94435.11;;;;
2020/10/01 05:28:42;;;;;;;14.2;9.100001;;;;;;;7.9;100;94435.11;;;;
2020/10/01 05:30:12;;;;;;;14.2;9.100001;;;;;;;7.9;100;94435.11;;;;
2020/10/01 05:31:27;;;;;;;14.2;9.100001;;;;;;;7.9;100;94435.11;;;;
2020/10/01 05:32:28;;;;;;;14.2;9.100001;;;;;;;7.9;100;94435.11;;;;
2020/10/01 05:33:28;;;;;;;17.75;8.9;;;;;;;8.08;100;94430.05;;;;
2020/10/01 05:34:47;;;;;;;17.75;8.9;;;;;;;8.08;100;94430.05;;;;
2020/10/01 05:35:48;;;;;;;17.75;8.9;;;;;;;8.08;100;94430.05;;;;
2020/10/01 05:36:49;;;;;;;17.75;8.9;;;;;;;8.08;100;94430.05;;;;
2020/10/01 05:37:49;;;;;;;17.75;8.9;;;;;;;8.08;100;94430.05;;;;
2020/10/01 05:38:50;;;;;;;17.75;8.9;;;;;;;8.08;100;94430.05;;;;
2020/10/01 05:40:04;;;;;;;17.75;8.9;;;;;;;8.08;100;94430.05;;;;
2020/10/01 05:41:06;;;;;;;17.75;8.9;;;;;;;8.08;100;94430.05;;;;
2020/10/01 05:42:07;;;;;;;17.75;8.9;;;;;;;8.08;100;94430.05;;;;
2020/10/01 05:43:08;;;;;;;17.75;8.9;;;;;;;8.08;100;94430.05;;;;
2020/10/01 05:44:08;;;;;;;14.3;8.699999;;;;;;;8.23;100;94419.06;;;;
2020/10/01 05:45:10;;;;;;;14.3;8.699999;;;;;;;8.23;100;94419.06;;;;
2020/10/01 05:46:10;;;;;;;14.3;8.699999;;;;;;;8.23;100;94419.06;;;;
2020/10/01 05:47:11;;;;;;;14.3;8.699999;;;;;;;8.23;100;94419.06;;;;
2020/10/01 05:48:21;;;;;;;14.3;8.699999;;;;;;;8.23;100;94419.06;;;;
2020/10/01 05:49:21;;;;;;;14.3;8.699999;;;;;;;8.23;100;94419.06;;;;
2020/10/01 05:50:22;;;;;;;14.3;8.699999;;;;;;;8.23;100;94419.06;;;;
2020/10/01 05:51:23;;;;;;;14.3;8.699999;;;;;;;8.23;100;94419.06;;;;
2020/10/01 05:52:23;;;;;;;14.3;8.699999;;;;;;;8.23;100;94419.06;;;;
2020/10/01 05:53:35;;;;;;;14.3;8.699999;;;;;;;8.23;100;94419.06;;;;
2020/10/01 05:54:36;;;;;;;16.8;9.849999;;;;;;;8.51;100;94402.06;;;;
2020/10/01 05:55:36;;;;;;;16.8;9.849999;;;;;;;8.51;100;94402.06;;;;
2020/10/01 05:56:41;;;;;;;16.8;9.849999;;;;;;;8.51;100;94402.06;;;;
2020/10/01 05:57:43;;;;;;;16.8;9.849999;;;;;;;8.51;100;94402.06;;;;
2020/10/01 05:58:44;;;;;;;16.8;9.849999;;;;;;;8.51;100;94402.06;;;;
2020/10/01 05:59:53;;;;;;;16.8;9.849999;;;;;;;8.51;100;94402.06;;;;
2020/10/01 06:00:54;;;;;;;16.8;9.849999;;;;;;;8.51;100;94402.06;;;;
2020/10/01 06:02:06;;;;;;;16.8;9.849999;;;;;;;8.51;100;94402.06;;;;
2020/10/01 06:03:07;;;;;;;16.8;9.849999;;;;;;;8.51;100;94402.06;;;;
2020/10/01 06:04:07;;;;;;;16.8;9.849999;;;;;;;8.51;100;94402.06;;;;
2020/10/01 06:05:08;;;;;;;13.5;9.2;;;;;;;8.78;100;94402.23;;;;
2020/10/01 06:06:08;;;;;;;13.5;9.2;;;;;;;8.78;100;94402.23;;;;
2020/10/01 06:07:09;;;;;;;13.5;9.2;;;;;;;8.78;100;94402.23;;;;
2020/10/01 06:08:09;;;;;;;13.5;9.2;;;;;;;8.78;100;94402.23;;;;
2020/10/01 06:09:11;;;;;;;13.5;9.2;;;;;;;8.78;100;94402.23;;;;
2020/10/01 06:10:12;;;;;;;13.5;9.2;;;;;;;8.78;100;94402.23;;;;
2020/10/01 06:11:12;;;;;;;13.5;9.2;;;;;;;8.78;100;94402.23;;;;
2020/10/01 06:12:13;;;;;;;13.5;9.2;;;;;;;8.78;100;94402.23;;;;
2020/10/01 06:13:13;;;;;;;13.5;9.2;;;;;;;8.78;100;94402.23;;;;
2020/10/01 06:14:16;;;;;;;13.5;9.2;;;;;;;8.78;100;94402.23;;;;
2020/10/01 06:15:18;;;;;;;9.849999;7.85;;;;;;;9.09;100;94397.14;;;;
2020/10/01 06:16:18;;;;;;;9.849999;7.85;;;;;;;9.09;100;94397.14;;;;
2020/10/01 06:17:24;;;;;;;9.849999;7.85;;;;;;;9.09;100;94397.14;;;;
2020/10/01 06:18:28;;;;;;;9.849999;7.85;;;;;;;9.09;100;94397.14;;;;